sensor_id;sensor_type;location;lat;lon;timestamp;pressure;altitude;pressure_sealevel;temperature
12918;BMP180;6526;54.312;13.092;2023-03-01T00:01:07;103450.00;;;4.70
12918;BMP180;6526;54.312;13.092;2023-03-01T00:03:34;103461.00;;;4.70
12918;BMP180;6526;54.312;13.092;2023-03-01T00:06:01;103453.00;;;4.70
12918;BMP180;6526;54.312;13.092;2023-03-01T00:08:28;103458.00;;;4.70
12918;BMP180;6526;54.312;13.092;2023-03-01T00:13:40;103453.00;;;4.50
12918;BMP180;6526;54.312;13.092;2023-03-01T00:16:10;103458.00;;;4.50
12918;BMP180;6526;54.312;13.092;2023-03-01T00:18:36;103456.00;;;4.50
12918;BMP180;6526;54.312;13.092;2023-03-01T00:21:03;103457.00;;;4.50
12918;BMP180;6526;54.312;13.092;2023-03-01T00:23:29;103456.00;;;4.50
12918;BMP180;6526;54.312;13.092;2023-03-01T00:25:55;103451.00;;;4.40
12918;BMP180;6526;54.312;13.092;2023-03-01T00:28:21;103449.00;;;4.30
12918;BMP180;6526;54.312;13.092;2023-03-01T00:30:47;103457.00;;;4.30
12918;BMP180;6526;54.312;13.092;2023-03-01T00:33:13;103445.00;;;4.30
12918;BMP180;6526;54.312;13.092;2023-03-01T00:35:40;103450.00;;;4.30
12918;BMP180;6526;54.312;13.092;2023-03-01T00:38:06;103440.00;;;4.30
12918;BMP180;6526;54.312;13.092;2023-03-01T00:40:34;103430.00;;;4.20
12918;BMP180;6526;54.312;13.092;2023-03-01T00:43:00;103445.00;;;4.20
12918;BMP180;6526;54.312;13.092;2023-03-01T00:45:27;103432.00;;;4.20
12918;BMP180;6526;54.312;13.092;2023-03-01T00:47:53;103433.00;;;4.10
12918;BMP180;6526;54.312;13.092;2023-03-01T00:50:20;103441.00;;;4.20
12918;BMP180;6526;54.312;13.092;2023-03-01T00:52:46;103431.00;;;4.20
12918;BMP180;6526;54.312;13.092;2023-03-01T00:55:12;103432.00;;;4.20
12918;BMP180;6526;54.312;13.092;2023-03-01T00:57:39;103433.00;;;4.10
12918;BMP180;6526;54.312;13.092;2023-03-01T01:00:06;103428.00;;;4.00
12918;BMP180;6526;54.312;13.092;2023-03-01T01:02:33;103432.00;;;4.00
12918;BMP180;6526;54.312;13.092;2023-03-01T01:05:00;103423.00;;;4.10
12918;BMP180;6526;54.312;13.092;2023-03-01T01:07:26;103420.00;;;4.00
12918;BMP180;6526;54.312;13.092;2023-03-01T01:09:52;103409.00;;;4.00
12918;BMP180;6526;54.312;13.092;2023-03-01T01:12:18;103410.00;;;4.10
12918;BMP180;6526;54.312;13.092;2023-03-01T01:14:44;103409.00;;;4.10
12918;BMP180;6526;54.312;13.092;2023-03-01T01:17:10;103418.00;;;4.20
12918;BMP180;6526;54.312;13.092;2023-03-01T01:19:36;103414.00;;;4.20
12918;BMP180;6526;54.312;13.092;2023-03-01T01:22:02;103412.00;;;4.20
12918;BMP180;6526;54.312;13.092;2023-03-01T01:24:29;103418.00;;;4.30
12918;BMP180;6526;54.312;13.092;2023-03-01T01:26:55;103414.00;;;4.30
12918;BMP180;6526;54.312;13.092;2023-03-01T01:29:21;103414.00;;;4.30
12918;BMP180;6526;54.312;13.092;2023-03-01T01:31:47;103413.00;;;4.20
12918;BMP180;6526;54.312;13.092;2023-03-01T01:34:16;103421.00;;;4.30
12918;BMP180;6526;54.312;13.092;2023-03-01T01:36:42;103419.00;;;4.40
12918;BMP180;6526;54.312;13.092;2023-03-01T01:39:09;103412.00;;;4.40
12918;BMP180;6526;54.312;13.092;2023-03-01T01:41:40;103409.00;;;4.40
12918;BMP180;6526;54.312;13.092;2023-03-01T01:44:20;103408.00;;;4.40
12918;BMP180;6526;54.312;13.092;2023-03-01T01:46:50;103411.00;;;4.40
12918;BMP180;6526;54.312;13.092;2023-03-01T01:49:38;103402.00;;;4.30
12918;BMP180;6526;54.312;13.092;2023-03-01T01:54:50;103401.00;;;4.20
12918;BMP180;6526;54.312;13.092;2023-03-01T01:57:24;103391.00;;;4.20
12918;BMP180;6526;54.312;13.092;2023-03-01T01:59:54;103392.00;;;4.10
12918;BMP180;6526;54.312;13.092;2023-03-01T02:02:22;103397.00;;;4.00
12918;BMP180;6526;54.312;13.092;2023-03-01T02:04:51;103389.00;;;3.80
12918;BMP180;6526;54.312;13.092;2023-03-01T02:07:23;103384.00;;;3.70
12918;BMP180;6526;54.312;13.092;2023-03-01T02:09:51;103380.00;;;3.70
12918;BMP180;6526;54.312;13.092;2023-03-01T02:12:20;103379.00;;;3.70
12918;BMP180;6526;54.312;13.092;2023-03-01T02:14:47;103369.00;;;3.70
12918;BMP180;6526;54.312;13.092;2023-03-01T02:17:15;103364.00;;;3.70
12918;BMP180;6526;54.312;13.092;2023-03-01T02:22:34;103361.00;;;3.80
12918;BMP180;6526;54.312;13.092;2023-03-01T02:28:05;103356.00;;;3.80
12918;BMP180;6526;54.312;13.092;2023-03-01T02:30:34;103352.00;;;3.80
12918;BMP180;6526;54.312;13.092;2023-03-01T02:33:01;103347.00;;;3.80
12918;BMP180;6526;54.312;13.092;2023-03-01T02:35:35;103347.00;;;3.80
12918;BMP180;6526;54.312;13.092;2023-03-01T02:38:06;103352.00;;;3.90
12918;BMP180;6526;54.312;13.092;2023-03-01T02:40:34;103351.00;;;4.00
12918;BMP180;6526;54.312;13.092;2023-03-01T02:43:02;103343.00;;;4.00
12918;BMP180;6526;54.312;13.092;2023-03-01T02:45:30;103344.00;;;4.20
12918;BMP180;6526;54.312;13.092;2023-03-01T02:47:56;103352.00;;;4.20
12918;BMP180;6526;54.312;13.092;2023-03-01T02:53:04;103339.00;;;4.30
12918;BMP180;6526;54.312;13.092;2023-03-01T02:55:33;103334.00;;;4.20
12918;BMP180;6526;54.312;13.092;2023-03-01T02:58:02;103335.00;;;4.40
12918;BMP180;6526;54.312;13.092;2023-03-01T03:00:37;103339.00;;;4.40
12918;BMP180;6526;54.312;13.092;2023-03-01T03:03:06;103342.00;;;4.50
12918;BMP180;6526;54.312;13.092;2023-03-01T03:05:33;103336.00;;;4.50
12918;BMP180;6526;54.312;13.092;2023-03-01T03:08:01;103335.00;;;4.50
12918;BMP180;6526;54.312;13.092;2023-03-01T03:10:30;103333.00;;;4.50
12918;BMP180;6526;54.312;13.092;2023-03-01T03:12:59;103335.00;;;4.40
12918;BMP180;6526;54.312;13.092;2023-03-01T03:15:27;103323.00;;;4.40
12918;BMP180;6526;54.312;13.092;2023-03-01T03:17:53;103337.00;;;4.40
12918;BMP180;6526;54.312;13.092;2023-03-01T03:20:22;103324.00;;;4.20
12918;BMP180;6526;54.312;13.092;2023-03-01T03:22:51;103315.00;;;4.20
12918;BMP180;6526;54.312;13.092;2023-03-01T03:25:19;103314.00;;;4.20
12918;BMP180;6526;54.312;13.092;2023-03-01T03:27:48;103319.00;;;4.20
12918;BMP180;6526;54.312;13.092;2023-03-01T03:30:19;103315.00;;;4.20
12918;BMP180;6526;54.312;13.092;2023-03-01T03:32:47;103320.00;;;4.20
12918;BMP180;6526;54.312;13.092;2023-03-01T03:35:24;103318.00;;;4.10
12918;BMP180;6526;54.312;13.092;2023-03-01T03:37:50;103318.00;;;4.20
12918;BMP180;6526;54.312;13.092;2023-03-01T03:40:37;103309.00;;;4.30
12918;BMP180;6526;54.312;13.092;2023-03-01T03:43:05;103306.00;;;4.30
12918;BMP180;6526;54.312;13.092;2023-03-01T03:45:32;103309.00;;;4.30
12918;BMP180;6526;54.312;13.092;2023-03-01T03:47:59;103309.00;;;4.30
12918;BMP180;6526;54.312;13.092;2023-03-01T03:50:26;103300.00;;;4.20
12918;BMP180;6526;54.312;13.092;2023-03-01T03:52:52;103297.00;;;4.20
12918;BMP180;6526;54.312;13.092;2023-03-01T03:55:18;103301.00;;;4.10
12918;BMP180;6526;54.312;13.092;2023-03-01T03:57:48;103308.00;;;4.10
12918;BMP180;6526;54.312;13.092;2023-03-01T04:00:21;103312.00;;;4.20
12918;BMP180;6526;54.312;13.092;2023-03-01T04:02:50;103298.00;;;4.10
12918;BMP180;6526;54.312;13.092;2023-03-01T04:05:18;103297.00;;;4.10
12918;BMP180;6526;54.312;13.092;2023-03-01T04:07:44;103299.00;;;4.20
12918;BMP180;6526;54.312;13.092;2023-03-01T04:10:14;103297.00;;;4.10
12918;BMP180;6526;54.312;13.092;2023-03-01T04:12:40;103291.00;;;4.00
12918;BMP180;6526;54.312;13.092;2023-03-01T04:15:07;103299.00;;;4.00
12918;BMP180;6526;54.312;13.092;2023-03-01T04:17:45;103292.00;;;4.00
12918;BMP180;6526;54.312;13.092;2023-03-01T04:20:14;103292.00;;;4.00
12918;BMP180;6526;54.312;13.092;2023-03-01T04:22:51;103287.00;;;4.00
12918;BMP180;6526;54.312;13.092;2023-03-01T04:25:17;103294.00;;;4.00
12918;BMP180;6526;54.312;13.092;2023-03-01T04:27:43;103307.00;;;4.10
12918;BMP180;6526;54.312;13.092;2023-03-01T04:30:10;103289.00;;;4.20
12918;BMP180;6526;54.312;13.092;2023-03-01T04:32:36;103302.00;;;4.10
12918;BMP180;6526;54.312;13.092;2023-03-01T04:35:02;103291.00;;;4.10
12918;BMP180;6526;54.312;13.092;2023-03-01T04:37:28;103296.00;;;4.10
12918;BMP180;6526;54.312;13.092;2023-03-01T04:39:55;103286.00;;;4.00
12918;BMP180;6526;54.312;13.092;2023-03-01T04:42:21;103301.00;;;4.10
12918;BMP180;6526;54.312;13.092;2023-03-01T04:44:47;103293.00;;;4.00
12918;BMP180;6526;54.312;13.092;2023-03-01T04:47:13;103299.00;;;4.00
12918;BMP180;6526;54.312;13.092;2023-03-01T04:49:39;103287.00;;;4.00
12918;BMP180;6526;54.312;13.092;2023-03-01T04:52:05;103276.00;;;4.00
12918;BMP180;6526;54.312;13.092;2023-03-01T04:54:32;103280.00;;;4.10
12918;BMP180;6526;54.312;13.092;2023-03-01T04:56:59;103281.00;;;4.10
12918;BMP180;6526;54.312;13.092;2023-03-01T04:59:26;103283.00;;;4.10
12918;BMP180;6526;54.312;13.092;2023-03-01T05:01:53;103276.00;;;4.00
12918;BMP180;6526;54.312;13.092;2023-03-01T05:04:22;103280.00;;;4.00
12918;BMP180;6526;54.312;13.092;2023-03-01T05:06:48;103272.00;;;3.90
12918;BMP180;6526;54.312;13.092;2023-03-01T05:09:14;103281.00;;;3.90
12918;BMP180;6526;54.312;13.092;2023-03-01T05:11:40;103284.00;;;3.90
12918;BMP180;6526;54.312;13.092;2023-03-01T05:14:07;103275.00;;;3.80
12918;BMP180;6526;54.312;13.092;2023-03-01T05:16:34;103279.00;;;3.90
12918;BMP180;6526;54.312;13.092;2023-03-01T05:19:02;103273.00;;;3.90
12918;BMP180;6526;54.312;13.092;2023-03-01T05:21:37;103270.00;;;3.90
12918;BMP180;6526;54.312;13.092;2023-03-01T05:24:24;103274.00;;;3.90
12918;BMP180;6526;54.312;13.092;2023-03-01T05:26:50;103266.00;;;3.90
12918;BMP180;6526;54.312;13.092;2023-03-01T05:29:21;103270.00;;;3.90
12918;BMP180;6526;54.312;13.092;2023-03-01T05:31:55;103260.00;;;3.90
12918;BMP180;6526;54.312;13.092;2023-03-01T05:34:33;103264.00;;;4.00
12918;BMP180;6526;54.312;13.092;2023-03-01T05:37:00;103255.00;;;3.90
12918;BMP180;6526;54.312;13.092;2023-03-01T05:39:28;103260.00;;;3.90
12918;BMP180;6526;54.312;13.092;2023-03-01T05:42:00;103259.00;;;4.00
12918;BMP180;6526;54.312;13.092;2023-03-01T05:44:28;103257.00;;;3.90
12918;BMP180;6526;54.312;13.092;2023-03-01T05:46:54;103268.00;;;3.80
12918;BMP180;6526;54.312;13.092;2023-03-01T05:49:21;103253.00;;;3.80
12918;BMP180;6526;54.312;13.092;2023-03-01T05:51:51;103249.00;;;3.80
12918;BMP180;6526;54.312;13.092;2023-03-01T05:54:18;103258.00;;;3.80
12918;BMP180;6526;54.312;13.092;2023-03-01T05:56:45;103254.00;;;3.70
12918;BMP180;6526;54.312;13.092;2023-03-01T05:59:11;103262.00;;;3.80
12918;BMP180;6526;54.312;13.092;2023-03-01T06:01:37;103263.00;;;3.90
12918;BMP180;6526;54.312;13.092;2023-03-01T06:04:04;103274.00;;;3.90
12918;BMP180;6526;54.312;13.092;2023-03-01T06:06:34;103264.00;;;3.90
12918;BMP180;6526;54.312;13.092;2023-03-01T06:09:00;103277.00;;;3.80
12918;BMP180;6526;54.312;13.092;2023-03-01T06:11:26;103269.00;;;3.80
12918;BMP180;6526;54.312;13.092;2023-03-01T06:13:52;103273.00;;;3.90
12918;BMP180;6526;54.312;13.092;2023-03-01T06:16:18;103266.00;;;3.80
12918;BMP180;6526;54.312;13.092;2023-03-01T06:18:44;103269.00;;;3.80
12918;BMP180;6526;54.312;13.092;2023-03-01T06:21:10;103263.00;;;3.80
12918;BMP180;6526;54.312;13.092;2023-03-01T06:23:37;103273.00;;;3.80
12918;BMP180;6526;54.312;13.092;2023-03-01T06:26:07;103279.00;;;3.80
12918;BMP180;6526;54.312;13.092;2023-03-01T06:28:34;103279.00;;;3.80
12918;BMP180;6526;54.312;13.092;2023-03-01T06:31:00;103277.00;;;3.80
12918;BMP180;6526;54.312;13.092;2023-03-01T06:33:26;103290.00;;;3.80
12918;BMP180;6526;54.312;13.092;2023-03-01T06:35:55;103275.00;;;3.80
12918;BMP180;6526;54.312;13.092;2023-03-01T06:38:22;103283.00;;;3.80
12918;BMP180;6526;54.312;13.092;2023-03-01T06:40:54;103283.00;;;3.90
12918;BMP180;6526;54.312;13.092;2023-03-01T06:43:21;103278.00;;;3.80
12918;BMP180;6526;54.312;13.092;2023-03-01T06:45:47;103275.00;;;3.70
12918;BMP180;6526;54.312;13.092;2023-03-01T06:48:13;103294.00;;;3.80
12918;BMP180;6526;54.312;13.092;2023-03-01T06:50:39;103286.00;;;3.90
12918;BMP180;6526;54.312;13.092;2023-03-01T06:53:05;103284.00;;;4.00
12918;BMP180;6526;54.312;13.092;2023-03-01T06:55:32;103274.00;;;4.10
12918;BMP180;6526;54.312;13.092;2023-03-01T06:57:59;103287.00;;;4.00
12918;BMP180;6526;54.312;13.092;2023-03-01T07:00:26;103276.00;;;3.90
12918;BMP180;6526;54.312;13.092;2023-03-01T07:02:53;103284.00;;;3.90
12918;BMP180;6526;54.312;13.092;2023-03-01T07:05:19;103287.00;;;3.90
12918;BMP180;6526;54.312;13.092;2023-03-01T07:07:45;103279.00;;;3.80
12918;BMP180;6526;54.312;13.092;2023-03-01T07:10:12;103291.00;;;3.90
12918;BMP180;6526;54.312;13.092;2023-03-01T07:12:38;103281.00;;;3.80
12918;BMP180;6526;54.312;13.092;2023-03-01T07:15:05;103281.00;;;3.80
12918;BMP180;6526;54.312;13.092;2023-03-01T07:17:31;103283.00;;;3.70
12918;BMP180;6526;54.312;13.092;2023-03-01T07:19:57;103279.00;;;3.80
12918;BMP180;6526;54.312;13.092;2023-03-01T07:22:23;103277.00;;;3.70
12918;BMP180;6526;54.312;13.092;2023-03-01T07:24:49;103273.00;;;3.80
12918;BMP180;6526;54.312;13.092;2023-03-01T07:27:15;103277.00;;;3.60
12918;BMP180;6526;54.312;13.092;2023-03-01T07:29:41;103295.00;;;3.60
12918;BMP180;6526;54.312;13.092;2023-03-01T07:32:07;103294.00;;;3.60
12918;BMP180;6526;54.312;13.092;2023-03-01T07:34:34;103296.00;;;3.60
12918;BMP180;6526;54.312;13.092;2023-03-01T07:37:00;103280.00;;;3.70
12918;BMP180;6526;54.312;13.092;2023-03-01T07:39:26;103283.00;;;3.70
12918;BMP180;6526;54.312;13.092;2023-03-01T07:41:52;103297.00;;;3.70
12918;BMP180;6526;54.312;13.092;2023-03-01T07:44:18;103295.00;;;3.80
12918;BMP180;6526;54.312;13.092;2023-03-01T07:46:44;103306.00;;;3.80
12918;BMP180;6526;54.312;13.092;2023-03-01T07:49:10;103318.00;;;3.90
12918;BMP180;6526;54.312;13.092;2023-03-01T07:51:38;103318.00;;;4.00
12918;BMP180;6526;54.312;13.092;2023-03-01T07:54:04;103322.00;;;4.10
12918;BMP180;6526;54.312;13.092;2023-03-01T07:56:30;103312.00;;;4.20
12918;BMP180;6526;54.312;13.092;2023-03-01T07:58:56;103309.00;;;4.20
12918;BMP180;6526;54.312;13.092;2023-03-01T08:01:22;103316.00;;;4.00
12918;BMP180;6526;54.312;13.092;2023-03-01T08:03:48;103302.00;;;4.10
12918;BMP180;6526;54.312;13.092;2023-03-01T08:06:16;103304.00;;;4.00
12918;BMP180;6526;54.312;13.092;2023-03-01T08:08:42;103318.00;;;4.00
12918;BMP180;6526;54.312;13.092;2023-03-01T08:11:11;103318.00;;;4.00
12918;BMP180;6526;54.312;13.092;2023-03-01T08:13:38;103316.00;;;4.00
12918;BMP180;6526;54.312;13.092;2023-03-01T08:16:05;103329.00;;;4.00
12918;BMP180;6526;54.312;13.092;2023-03-01T08:18:32;103324.00;;;4.00
12918;BMP180;6526;54.312;13.092;2023-03-01T08:21:06;103315.00;;;4.10
12918;BMP180;6526;54.312;13.092;2023-03-01T08:23:33;103320.00;;;4.10
12918;BMP180;6526;54.312;13.092;2023-03-01T08:26:09;103311.00;;;4.00
12918;BMP180;6526;54.312;13.092;2023-03-01T08:28:36;103314.00;;;4.00
12918;BMP180;6526;54.312;13.092;2023-03-01T08:31:02;103314.00;;;4.00
12918;BMP180;6526;54.312;13.092;2023-03-01T08:33:28;103309.00;;;4.00
12918;BMP180;6526;54.312;13.092;2023-03-01T08:36:05;103310.00;;;4.00
12918;BMP180;6526;54.312;13.092;2023-03-01T08:38:33;103310.00;;;4.00
12918;BMP180;6526;54.312;13.092;2023-03-01T08:41:01;103300.00;;;4.00
12918;BMP180;6526;54.312;13.092;2023-03-01T08:43:27;103301.00;;;4.20
12918;BMP180;6526;54.312;13.092;2023-03-01T08:45:53;103284.00;;;4.20
12918;BMP180;6526;54.312;13.092;2023-03-01T08:48:19;103290.00;;;4.20
12918;BMP180;6526;54.312;13.092;2023-03-01T08:50:46;103305.00;;;4.30
12918;BMP180;6526;54.312;13.092;2023-03-01T08:53:12;103294.00;;;4.30
12918;BMP180;6526;54.312;13.092;2023-03-01T08:55:38;103306.00;;;4.50
12918;BMP180;6526;54.312;13.092;2023-03-01T08:58:04;103309.00;;;4.80
12918;BMP180;6526;54.312;13.092;2023-03-01T09:00:30;103303.00;;;4.60
12918;BMP180;6526;54.312;13.092;2023-03-01T09:02:56;103312.00;;;4.60
12918;BMP180;6526;54.312;13.092;2023-03-01T09:05:22;103316.00;;;4.70
12918;BMP180;6526;54.312;13.092;2023-03-01T09:07:48;103316.00;;;4.70
12918;BMP180;6526;54.312;13.092;2023-03-01T09:10:14;103316.00;;;4.70
12918;BMP180;6526;54.312;13.092;2023-03-01T09:12:40;103315.00;;;4.70
12918;BMP180;6526;54.312;13.092;2023-03-01T09:15:06;103310.00;;;4.80
12918;BMP180;6526;54.312;13.092;2023-03-01T09:17:32;103302.00;;;4.90
12918;BMP180;6526;54.312;13.092;2023-03-01T09:19:58;103306.00;;;4.90
12918;BMP180;6526;54.312;13.092;2023-03-01T09:22:25;103298.00;;;5.00
12918;BMP180;6526;54.312;13.092;2023-03-01T09:24:51;103307.00;;;5.10
12918;BMP180;6526;54.312;13.092;2023-03-01T09:27:17;103302.00;;;5.30
12918;BMP180;6526;54.312;13.092;2023-03-01T09:29:44;103289.00;;;5.30
12918;BMP180;6526;54.312;13.092;2023-03-01T09:32:11;103299.00;;;5.20
12918;BMP180;6526;54.312;13.092;2023-03-01T09:34:37;103306.00;;;5.20
12918;BMP180;6526;54.312;13.092;2023-03-01T09:37:23;103296.00;;;5.20
12918;BMP180;6526;54.312;13.092;2023-03-01T09:39:49;103300.00;;;5.40
12918;BMP180;6526;54.312;13.092;2023-03-01T09:42:15;103301.00;;;5.50
12918;BMP180;6526;54.312;13.092;2023-03-01T09:44:50;103313.00;;;5.40
12918;BMP180;6526;54.312;13.092;2023-03-01T09:47:22;103297.00;;;5.40
12918;BMP180;6526;54.312;13.092;2023-03-01T09:53:05;103303.00;;;5.60
12918;BMP180;6526;54.312;13.092;2023-03-01T09:55:39;103298.00;;;5.70
12918;BMP180;6526;54.312;13.092;2023-03-01T09:58:25;103307.00;;;5.90
12918;BMP180;6526;54.312;13.092;2023-03-01T10:00:58;103305.00;;;5.90
12918;BMP180;6526;54.312;13.092;2023-03-01T10:03:36;103299.00;;;6.00
12918;BMP180;6526;54.312;13.092;2023-03-01T10:06:18;103303.00;;;6.00
12918;BMP180;6526;54.312;13.092;2023-03-01T10:11:31;103309.00;;;6.20
12918;BMP180;6526;54.312;13.092;2023-03-01T10:14:13;103302.00;;;6.20
12918;BMP180;6526;54.312;13.092;2023-03-01T10:22:21;103305.00;;;6.40
12918;BMP180;6526;54.312;13.092;2023-03-01T10:24:48;103312.00;;;6.30
12918;BMP180;6526;54.312;13.092;2023-03-01T10:27:21;103308.00;;;6.40
12918;BMP180;6526;54.312;13.092;2023-03-01T10:32:32;103306.00;;;6.50
12918;BMP180;6526;54.312;13.092;2023-03-01T10:34:58;103304.00;;;6.40
12918;BMP180;6526;54.312;13.092;2023-03-01T10:37:24;103309.00;;;6.50
12918;BMP180;6526;54.312;13.092;2023-03-01T10:40:05;103296.00;;;6.80
12918;BMP180;6526;54.312;13.092;2023-03-01T10:42:45;103312.00;;;6.70
12918;BMP180;6526;54.312;13.092;2023-03-01T10:45:36;103300.00;;;6.60
12918;BMP180;6526;54.312;13.092;2023-03-01T10:48:14;103301.00;;;6.50
12918;BMP180;6526;54.312;13.092;2023-03-01T10:50:42;103302.00;;;6.80
12918;BMP180;6526;54.312;13.092;2023-03-01T10:53:35;103294.00;;;6.90
12918;BMP180;6526;54.312;13.092;2023-03-01T10:56:05;103294.00;;;7.10
12918;BMP180;6526;54.312;13.092;2023-03-01T10:58:33;103288.00;;;7.10
12918;BMP180;6526;54.312;13.092;2023-03-01T11:01:02;103293.00;;;7.10
12918;BMP180;6526;54.312;13.092;2023-03-01T11:03:38;103291.00;;;7.00
12918;BMP180;6526;54.312;13.092;2023-03-01T11:06:08;103285.00;;;6.90
12918;BMP180;6526;54.312;13.092;2023-03-01T11:08:48;103296.00;;;7.10
12918;BMP180;6526;54.312;13.092;2023-03-01T11:11:30;103297.00;;;7.10
12918;BMP180;6526;54.312;13.092;2023-03-01T11:13:59;103303.00;;;7.10
12918;BMP180;6526;54.312;13.092;2023-03-01T11:16:33;103301.00;;;7.20
12918;BMP180;6526;54.312;13.092;2023-03-01T11:19:04;103288.00;;;7.20
12918;BMP180;6526;54.312;13.092;2023-03-01T11:24:26;103295.00;;;7.00
12918;BMP180;6526;54.312;13.092;2023-03-01T11:26:54;103299.00;;;7.00
12918;BMP180;6526;54.312;13.092;2023-03-01T11:32:02;103289.00;;;7.10
12918;BMP180;6526;54.312;13.092;2023-03-01T11:37:20;103300.00;;;7.20
12918;BMP180;6526;54.312;13.092;2023-03-01T11:42:21;103284.00;;;7.30
12918;BMP180;6526;54.312;13.092;2023-03-01T11:44:54;103283.00;;;7.70
12918;BMP180;6526;54.312;13.092;2023-03-01T11:53:00;103279.00;;;7.40
12918;BMP180;6526;54.312;13.092;2023-03-01T11:58:26;103262.00;;;7.70
12918;BMP180;6526;54.312;13.092;2023-03-01T12:00:57;103266.00;;;7.70
12918;BMP180;6526;54.312;13.092;2023-03-01T12:12:54;103258.00;;;7.70
12918;BMP180;6526;54.312;13.092;2023-03-01T12:15:44;103257.00;;;7.90
12918;BMP180;6526;54.312;13.092;2023-03-01T12:18:24;103256.00;;;7.80
12918;BMP180;6526;54.312;13.092;2023-03-01T12:24:07;103256.00;;;7.90
12918;BMP180;6526;54.312;13.092;2023-03-01T12:29:34;103259.00;;;8.20
12918;BMP180;6526;54.312;13.092;2023-03-01T12:34:56;103251.00;;;8.20
12918;BMP180;6526;54.312;13.092;2023-03-01T12:40:15;103268.00;;;8.20
12918;BMP180;6526;54.312;13.092;2023-03-01T12:43:04;103263.00;;;8.30
12918;BMP180;6526;54.312;13.092;2023-03-01T12:45:58;103263.00;;;8.40
12918;BMP180;6526;54.312;13.092;2023-03-01T12:48:56;103247.00;;;8.30
12918;BMP180;6526;54.312;13.092;2023-03-01T12:51:28;103244.00;;;8.30
12918;BMP180;6526;54.312;13.092;2023-03-01T12:53:57;103238.00;;;8.30
12918;BMP180;6526;54.312;13.092;2023-03-01T12:56:35;103242.00;;;8.20
12918;BMP180;6526;54.312;13.092;2023-03-01T12:59:23;103251.00;;;8.40
12918;BMP180;6526;54.312;13.092;2023-03-01T13:02:02;103246.00;;;8.20
12918;BMP180;6526;54.312;13.092;2023-03-01T13:07:59;103238.00;;;8.20
12918;BMP180;6526;54.312;13.092;2023-03-01T13:10:48;103239.00;;;8.20
12918;BMP180;6526;54.312;13.092;2023-03-01T13:13:20;103232.00;;;8.50
12918;BMP180;6526;54.312;13.092;2023-03-01T13:15:47;103228.00;;;8.70
12918;BMP180;6526;54.312;13.092;2023-03-01T13:21:00;103218.00;;;8.70
12918;BMP180;6526;54.312;13.092;2023-03-01T13:23:36;103210.00;;;8.60
12918;BMP180;6526;54.312;13.092;2023-03-01T13:26:17;103226.00;;;8.40
12918;BMP180;6526;54.312;13.092;2023-03-01T13:33:53;103211.00;;;8.60
12918;BMP180;6526;54.312;13.092;2023-03-01T13:39:02;103235.00;;;8.50
12918;BMP180;6526;54.312;13.092;2023-03-01T13:44:37;103208.00;;;8.50
12918;BMP180;6526;54.312;13.092;2023-03-01T13:49:48;103212.00;;;8.50
12918;BMP180;6526;54.312;13.092;2023-03-01T13:57:56;103207.00;;;8.60
12918;BMP180;6526;54.312;13.092;2023-03-01T14:00:35;103200.00;;;8.70
12918;BMP180;6526;54.312;13.092;2023-03-01T14:03:13;103211.00;;;8.70
12918;BMP180;6526;54.312;13.092;2023-03-01T14:05:41;103212.00;;;8.80
12918;BMP180;6526;54.312;13.092;2023-03-01T14:08:23;103203.00;;;8.90
12918;BMP180;6526;54.312;13.092;2023-03-01T14:14:04;103206.00;;;8.90
12918;BMP180;6526;54.312;13.092;2023-03-01T14:17:04;103188.00;;;8.90
12918;BMP180;6526;54.312;13.092;2023-03-01T14:19:34;103178.00;;;9.00
12918;BMP180;6526;54.312;13.092;2023-03-01T14:24:44;103180.00;;;9.00
12918;BMP180;6526;54.312;13.092;2023-03-01T14:27:12;103170.00;;;9.10
12918;BMP180;6526;54.312;13.092;2023-03-01T14:29:40;103168.00;;;9.00
12918;BMP180;6526;54.312;13.092;2023-03-01T14:32:32;103162.00;;;8.90
12918;BMP180;6526;54.312;13.092;2023-03-01T14:34:59;103166.00;;;8.90
12918;BMP180;6526;54.312;13.092;2023-03-01T14:37:28;103159.00;;;8.90
12918;BMP180;6526;54.312;13.092;2023-03-01T14:39:57;103156.00;;;9.00
12918;BMP180;6526;54.312;13.092;2023-03-01T14:42:27;103153.00;;;9.00
12918;BMP180;6526;54.312;13.092;2023-03-01T14:44:55;103156.00;;;9.00
12918;BMP180;6526;54.312;13.092;2023-03-01T14:47:31;103161.00;;;9.10
12918;BMP180;6526;54.312;13.092;2023-03-01T14:50:00;103159.00;;;9.00
12918;BMP180;6526;54.312;13.092;2023-03-01T14:52:38;103153.00;;;9.10
12918;BMP180;6526;54.312;13.092;2023-03-01T14:55:11;103158.00;;;9.10
12918;BMP180;6526;54.312;13.092;2023-03-01T14:57:44;103158.00;;;9.20
12918;BMP180;6526;54.312;13.092;2023-03-01T15:00:20;103157.00;;;9.20
12918;BMP180;6526;54.312;13.092;2023-03-01T15:02:48;103155.00;;;9.10
12918;BMP180;6526;54.312;13.092;2023-03-01T15:05:16;103148.00;;;9.10
12918;BMP180;6526;54.312;13.092;2023-03-01T15:07:44;103155.00;;;9.20
12918;BMP180;6526;54.312;13.092;2023-03-01T15:10:26;103161.00;;;9.30
12918;BMP180;6526;54.312;13.092;2023-03-01T15:12:53;103153.00;;;9.20
12918;BMP180;6526;54.312;13.092;2023-03-01T15:15:30;103148.00;;;9.20
12918;BMP180;6526;54.312;13.092;2023-03-01T15:18:20;103134.00;;;9.10
12918;BMP180;6526;54.312;13.092;2023-03-01T15:20:48;103141.00;;;9.00
12918;BMP180;6526;54.312;13.092;2023-03-01T15:23:26;103128.00;;;8.90
12918;BMP180;6526;54.312;13.092;2023-03-01T15:25:54;103132.00;;;8.90
12918;BMP180;6526;54.312;13.092;2023-03-01T15:28:25;103120.00;;;8.90
12918;BMP180;6526;54.312;13.092;2023-03-01T15:31:13;103123.00;;;9.00
12918;BMP180;6526;54.312;13.092;2023-03-01T15:33:44;103125.00;;;8.90
12918;BMP180;6526;54.312;13.092;2023-03-01T15:38:59;103119.00;;;8.90
12918;BMP180;6526;54.312;13.092;2023-03-01T15:41:47;103118.00;;;8.80
12918;BMP180;6526;54.312;13.092;2023-03-01T15:44:28;103128.00;;;8.80
12918;BMP180;6526;54.312;13.092;2023-03-01T15:46:55;103121.00;;;9.00
12918;BMP180;6526;54.312;13.092;2023-03-01T15:49:30;103119.00;;;8.90
12918;BMP180;6526;54.312;13.092;2023-03-01T15:51:58;103116.00;;;8.70
12918;BMP180;6526;54.312;13.092;2023-03-01T15:54:25;103118.00;;;8.60
12918;BMP180;6526;54.312;13.092;2023-03-01T15:56:52;103120.00;;;8.60
12918;BMP180;6526;54.312;13.092;2023-03-01T15:59:19;103111.00;;;8.70
12918;BMP180;6526;54.312;13.092;2023-03-01T16:01:45;103118.00;;;8.50
12918;BMP180;6526;54.312;13.092;2023-03-01T16:04:16;103108.00;;;8.20
12918;BMP180;6526;54.312;13.092;2023-03-01T16:06:47;103112.00;;;8.30